CheckWX is a tool to help pilots better visualize weather data.  It is not intended as a substitute for an official pre-flight weather briefing.

02:27:09 UTC

KEWR TAF
Newark Liberty International Airport
Newark, New Jersey, USA
KEWR 132320Z 1400/1506 30010KT P6SM SCT060 FM140300 33006KT P6SM SCT060 FM142100 34008KT P6SM BKN070 FM150100 01006KT P6SM SCT070

Jul-14@
00:00 UTC

Jul-14 @ 00:00 UTC

Jul-14@
03:00 UTC

Jul-14 @ 03:00 UTC

TAF KEWR 132320Z 1400/1506 30010KT P6SM SCT060

Expired

Wind
  • 300° at 10 KTS
Cloud Levels
  • Scattered at 6,000' AGL

Jul-14@
03:00 UTC

Jul-14 @ 03:00 UTC

Jul-14@
21:00 UTC

Jul-14 @ 21:00 UTC

FM140300 33006KT P6SM SCT060

Expired

Wind
  • 330° at 6 KTS
Cloud Levels
  • Scattered at 6,000' AGL

Jul-14@
21:00 UTC

Jul-14 @ 21:00 UTC

Jul-15@
01:00 UTC

Jul-15 @ 01:00 UTC

FM142100 34008KT P6SM BKN070

Expired

Wind
  • 340° at 8 KTS
Cloud Levels
  • Broken at 7,000' AGL

Jul-15@
01:00 UTC

Jul-15 @ 01:00 UTC

Jul-15@
06:00 UTC

Jul-15 @ 06:00 UTC

FM150100 01006KT P6SM SCT070

From

From Standard forecast or significant change

Wind
  • 010° at 6 KTS
Cloud Levels
  • Scattered at 7,000' AGL